createdAt,value
2022-08-22T00:00:15.370Z,1.00
2022-08-22T00:03:00.667Z,3.00
2022-08-22T00:03:01.452Z,1.50
2022-08-22T00:03:02.257Z,5.25
2022-08-22T00:03:07.953Z,1.00
2022-08-22T00:05:54.793Z,1.25
2022-08-22T00:08:55.689Z,1.50
2022-08-22T00:11:37.678Z,0.75
2022-08-22T00:14:22.361Z,1.00
2022-08-22T00:17:04.703Z,1.00
2022-08-22T00:19:48.665Z,0.75
2022-08-22T00:22:30.077Z,1.00
2022-08-22T00:25:44.484Z,0.25
2022-08-22T00:28:17.833Z,1.00
2022-08-22T00:31:31.971Z,1.00
2022-08-22T00:34:07.132Z,1.00
2022-08-22T00:36:43.459Z,1.00
2022-08-22T00:39:25.405Z,0.00
2022-08-22T00:42:31.596Z,1.00
2022-08-22T00:45:22.678Z,1.00
2022-08-22T00:48:21.654Z,1.00
2022-08-22T00:50:51.016Z,2.00
2022-08-22T00:53:23.765Z,1.00
2022-08-22T00:56:07.280Z,1.25
2022-08-22T00:58:56.236Z,1.00
2022-08-22T01:01:31.402Z,1.00
2022-08-22T01:04:24.775Z,1.00
2022-08-22T01:07:09.419Z,1.00
2022-08-22T01:10:01.693Z,1.00
2022-08-22T01:12:49.937Z,1.00
2022-08-22T01:15:24.752Z,0.75
2022-08-22T01:18:32.675Z,1.00
2022-08-22T01:21:14.139Z,1.50
2022-08-22T01:23:58.804Z,2.00
2022-08-22T01:27:03.732Z,1.00
2022-08-22T01:29:30.323Z,2.00
2022-08-22T01:32:31.748Z,1.00
2022-08-22T01:35:34.086Z,1.00
2022-08-22T01:38:18.275Z,1.00
2022-08-22T01:40:56.958Z,1.25
2022-08-22T01:43:58.604Z,0.75
2022-08-22T01:46:54.535Z,1.00
2022-08-22T01:49:41.663Z,2.00
2022-08-22T01:52:19.471Z,1.25
2022-08-22T01:55:03.096Z,1.00
2022-08-22T01:57:29.804Z,1.50
2022-08-22T02:00:06.581Z,1.00
2022-08-22T02:03:10.902Z,0.00
2022-08-22T02:05:50.090Z,1.00
2022-08-22T02:08:27.420Z,1.25
2022-08-22T02:11:03.715Z,0.50
2022-08-22T02:13:36.320Z,1.50
2022-08-22T02:16:18.689Z,1.00
2022-08-22T02:19:31.156Z,1.00
2022-08-22T02:22:21.473Z,1.00
2022-08-22T02:25:12.504Z,1.00
2022-08-22T02:27:49.055Z,1.50
2022-08-22T02:30:20.324Z,1.50
2022-08-22T02:33:16.747Z,1.00
2022-08-22T02:36:00.142Z,1.00
2022-08-22T02:38:29.823Z,1.00
2022-08-22T02:41:16.508Z,2.00
2022-08-22T02:43:57.029Z,1.00
2022-08-22T02:46:49.682Z,1.25
2022-08-22T02:49:33.331Z,1.00
2022-08-22T02:52:17.242Z,1.00
2022-08-22T02:54:56.399Z,1.00
2022-08-22T02:58:01.037Z,1.00
2022-08-22T03:00:33.189Z,2.25
2022-08-22T03:03:02.813Z,2.00
2022-08-22T03:05:38.397Z,1.75
2022-08-22T03:08:09.546Z,1.00
2022-08-22T03:10:45.633Z,1.00
2022-08-22T03:13:25.767Z,0.00
2022-08-22T03:15:59.416Z,1.00
2022-08-22T03:19:13.309Z,1.00
2022-08-22T03:22:00.485Z,1.00
2022-08-22T03:24:56.978Z,1.00
2022-08-22T03:27:38.974Z,1.75
2022-08-22T03:30:10.212Z,1.75
2022-08-22T03:33:12.817Z,0.00
2022-08-22T03:35:57.356Z,1.00
2022-08-22T03:38:33.121Z,1.00
2022-08-22T03:41:38.585Z,1.00
2022-08-22T03:44:15.332Z,1.25
2022-08-22T03:47:19.550Z,2.00
2022-08-22T03:50:18.445Z,1.00
2022-08-22T03:53:18.717Z,1.75
2022-08-22T03:55:54.607Z,2.00
2022-08-22T03:58:48.763Z,1.00
2022-08-22T04:01:51.623Z,1.00
2022-08-22T04:04:24.003Z,2.50
2022-08-22T04:07:33.743Z,1.25
2022-08-22T04:10:26.486Z,1.00
2022-08-22T04:13:09.988Z,1.25
2022-08-22T04:16:14.157Z,2.00
2022-08-22T04:18:40.751Z,1.75
2022-08-22T04:21:29.120Z,1.50
2022-08-22T04:24:25.239Z,1.25
2022-08-22T04:26:58.115Z,1.00
2022-08-22T04:29:49.034Z,1.00
2022-08-22T04:32:36.331Z,2.00
2022-08-22T04:35:11.859Z,2.00
2022-08-22T04:37:53.620Z,1.00
2022-08-22T04:40:27.526Z,2.00
2022-08-22T04:43:00.607Z,2.00
2022-08-22T04:45:37.752Z,2.25
2022-08-22T04:48:21.060Z,0.00
2022-08-22T04:51:10.638Z,1.00
2022-08-22T04:53:51.081Z,1.75
2022-08-22T04:56:29.937Z,1.75
2022-08-22T04:59:11.691Z,1.50
2022-08-22T05:01:44.819Z,1.25
2022-08-22T05:04:22.896Z,2.00
2022-08-22T05:06:54.177Z,2.00
2022-08-22T05:09:28.879Z,2.00
2022-08-22T05:12:05.039Z,3.00
2022-08-22T05:14:40.318Z,1.00
2022-08-22T05:17:12.628Z,3.00
2022-08-22T05:19:50.685Z,2.50
2022-08-22T05:22:23.039Z,3.00
2022-08-22T05:24:59.029Z,3.00
2022-08-22T05:27:30.338Z,3.75
2022-08-22T05:30:22.363Z,3.00
2022-08-22T05:32:57.114Z,3.00
2022-08-22T05:35:37.707Z,3.75
2022-08-22T05:38:11.809Z,5.75
2022-08-22T05:40:39.210Z,4.00
2022-08-22T05:43:09.780Z,3.00
2022-08-22T05:45:38.818Z,3.25
2022-08-22T05:48:11.304Z,5.00
2022-08-22T05:51:19.115Z,3.50
2022-08-22T05:53:55.265Z,2.00
2022-08-22T05:56:37.576Z,5.00
2022-08-22T05:59:15.632Z,4.00
2022-08-22T06:02:13.777Z,4.00
2022-08-22T06:05:00.957Z,3.50
2022-08-22T06:07:37.621Z,2.00
2022-08-22T06:10:16.856Z,3.00
2022-08-22T06:12:54.290Z,3.00
2022-08-22T06:15:28.938Z,3.25
2022-08-22T06:18:05.289Z,2.25
2022-08-22T06:20:43.408Z,3.00
2022-08-22T06:23:15.864Z,2.75
2022-08-22T06:25:47.111Z,1.25
2022-08-22T06:28:21.407Z,2.25
2022-08-22T06:30:54.117Z,2.25
2022-08-22T06:33:28.700Z,4.00
2022-08-22T06:36:25.671Z,3.00
2022-08-22T06:39:05.759Z,3.00
2022-08-22T06:41:36.348Z,2.00
2022-08-22T06:44:05.857Z,1.00
2022-08-22T06:46:36.617Z,2.00
2022-08-22T06:49:06.711Z,1.25
2022-08-22T06:51:36.109Z,2.00
2022-08-22T06:54:07.984Z,1.00
2022-08-22T06:56:40.547Z,3.75
2022-08-22T06:59:13.490Z,2.00
2022-08-22T07:01:50.605Z,2.00
2022-08-22T07:04:21.198Z,1.25
2022-08-22T07:06:51.171Z,1.25
2022-08-22T07:09:26.878Z,1.00
2022-08-22T07:11:56.355Z,1.50
2022-08-22T07:14:30.184Z,1.25
2022-08-22T07:17:02.584Z,1.00
2022-08-22T07:19:40.981Z,2.00
2022-08-22T07:22:21.357Z,1.00
2022-08-22T07:24:53.602Z,1.50
2022-08-22T07:27:37.550Z,1.25
2022-08-22T07:30:13.096Z,1.00
2022-08-22T07:32:55.691Z,1.00
2022-08-22T07:35:43.929Z,2.00
2022-08-22T07:38:45.163Z,2.75
2022-08-22T07:41:14.521Z,2.75
2022-08-22T07:43:57.875Z,3.25
2022-08-22T07:46:41.794Z,3.00
2022-08-22T07:49:25.723Z,3.00
2022-08-22T07:52:06.089Z,2.75
2022-08-22T07:54:51.448Z,3.75
2022-08-22T07:57:23.880Z,4.00
2022-08-22T07:59:55.185Z,2.25
2022-08-22T08:02:24.184Z,2.50
2022-08-22T08:04:55.122Z,4.00
2022-08-22T08:07:26.548Z,3.75
2022-08-22T08:09:57.630Z,3.00
2022-08-22T08:12:41.665Z,3.00
2022-08-22T08:15:15.318Z,4.00
2022-08-22T08:17:44.559Z,3.00
2022-08-22T08:20:14.809Z,3.00
2022-08-22T08:22:45.000Z,3.00
2022-08-22T08:25:19.597Z,2.50
2022-08-22T08:28:05.061Z,3.00
2022-08-22T08:30:55.424Z,2.75
2022-08-22T08:33:26.719Z,2.00
2022-08-22T08:36:36.590Z,4.00
2022-08-22T08:39:14.918Z,2.50
2022-08-22T08:41:53.292Z,3.75
2022-08-22T08:44:35.869Z,4.25
2022-08-22T08:47:15.037Z,4.00
2022-08-22T08:49:53.504Z,3.00
2022-08-22T08:52:29.743Z,3.75
2022-08-22T08:55:21.971Z,3.25
2022-08-22T08:57:55.139Z,3.25
2022-08-22T09:00:23.402Z,3.50
2022-08-22T09:03:08.095Z,6.75
2022-08-22T09:05:43.493Z,3.00
2022-08-22T09:08:45.288Z,3.50
2022-08-22T09:11:28.475Z,3.25
2022-08-22T09:14:09.768Z,3.00
2022-08-22T09:16:51.281Z,1.25
2022-08-22T09:19:43.251Z,3.00
2022-08-22T09:25:28.681Z,2.00
2022-08-22T09:28:28.381Z,3.00
2022-08-22T09:31:44.806Z,2.75
2022-08-22T09:34:32.056Z,2.50
2022-08-22T09:37:21.729Z,3.00
2022-08-22T09:40:04.126Z,1.00
2022-08-22T09:43:01.814Z,2.75
2022-08-22T09:45:37.839Z,1.25
2022-08-22T09:48:33.770Z,2.50
2022-08-22T09:51:32.317Z,2.00
2022-08-22T09:54:14.337Z,2.25
2022-08-22T09:57:08.537Z,3.25
2022-08-22T09:59:42.789Z,2.25
2022-08-22T10:02:29.114Z,2.50
2022-08-22T10:05:44.049Z,3.00
2022-08-22T10:08:33.369Z,2.75
2022-08-22T10:11:26.455Z,3.00
2022-08-22T10:13:57.313Z,3.00
2022-08-22T10:16:49.540Z,3.25
2022-08-22T10:19:46.809Z,3.00
2022-08-22T10:22:39.087Z,3.00
2022-08-22T10:25:27.916Z,1.75
2022-08-22T10:28:14.900Z,2.25
2022-08-22T10:31:00.936Z,2.00
2022-08-22T10:33:38.151Z,3.00
2022-08-22T10:36:13.857Z,2.25
2022-08-22T10:38:49.812Z,2.75
2022-08-22T10:41:31.788Z,2.00
2022-08-22T10:44:14.786Z,2.00
2022-08-22T10:46:55.741Z,2.75
2022-08-22T10:49:51.296Z,1.00
2022-08-22T10:52:49.004Z,2.00
2022-08-22T10:55:24.603Z,1.00
2022-08-22T10:57:56.968Z,1.00
2022-08-22T11:00:46.441Z,1.75
2022-08-22T11:03:57.075Z,1.50
2022-08-22T11:06:46.660Z,2.00
2022-08-22T11:09:42.158Z,2.00
2022-08-22T11:12:19.279Z,2.00
2022-08-22T11:15:04.768Z,2.00
2022-08-22T11:17:59.635Z,1.00
2022-08-22T11:20:39.150Z,1.50
2022-08-22T11:23:28.181Z,2.25
2022-08-22T11:26:33.660Z,2.00
2022-08-22T11:29:41.159Z,2.00
2022-08-22T11:32:23.191Z,2.00
2022-08-22T11:35:01.669Z,2.00
2022-08-22T11:37:43.998Z,1.75
2022-08-22T11:40:37.913Z,1.00
2022-08-22T11:43:07.910Z,2.00
2022-08-22T11:45:48.945Z,2.00
2022-08-22T11:48:41.110Z,1.00
2022-08-22T11:51:40.968Z,2.00
2022-08-22T11:54:15.902Z,1.75
2022-08-22T11:57:07.483Z,3.00
2022-08-22T12:00:02.476Z,2.25
2022-08-22T12:02:57.935Z,2.00
2022-08-22T12:05:35.609Z,2.00
2022-08-22T12:08:08.049Z,2.50
2022-08-22T12:10:45.907Z,1.25
2022-08-22T12:13:49.348Z,1.00
2022-08-22T12:16:21.761Z,2.00
2022-08-22T12:19:01.800Z,2.25
2022-08-22T12:21:52.953Z,2.00
2022-08-22T12:24:38.295Z,2.00
2022-08-22T12:27:11.295Z,2.25
2022-08-22T12:29:59.746Z,7.50
2022-08-22T12:32:45.876Z,2.00
2022-08-22T12:35:29.972Z,1.00
2022-08-22T12:37:57.059Z,1.00
2022-08-22T12:40:32.749Z,1.50
2022-08-22T12:43:24.400Z,2.00
2022-08-22T12:46:05.847Z,2.00
2022-08-22T12:49:00.317Z,6.75
2022-08-22T12:51:55.854Z,1.75
2022-08-22T12:54:48.971Z,2.00
2022-08-22T12:57:54.084Z,2.00
2022-08-22T13:00:48.289Z,1.00
2022-08-22T13:03:37.111Z,1.00
2022-08-22T13:06:26.302Z,0.25
2022-08-22T13:08:54.589Z,0.25
2022-08-22T13:11:23.696Z,0.00
2022-08-22T13:14:00.395Z,0.00
2022-08-22T13:16:49.009Z,0.00
2022-08-22T13:19:22.336Z,0.00
2022-08-22T13:21:57.969Z,0.00
2022-08-22T13:24:55.238Z,1.00
2022-08-22T13:27:25.539Z,1.75
2022-08-22T13:30:00.981Z,0.00
2022-08-22T13:32:40.533Z,0.25
2022-08-22T13:35:32.539Z,0.00
2022-08-22T13:38:08.247Z,0.00
2022-08-22T13:40:44.246Z,0.00
2022-08-22T13:43:17.117Z,0.00
2022-08-22T13:45:56.053Z,1.00
2022-08-22T13:48:28.829Z,0.00
2022-08-22T13:51:08.113Z,0.00
2022-08-22T13:53:38.205Z,0.00
2022-08-22T13:56:15.900Z,0.00
2022-08-22T13:58:51.644Z,0.00
2022-08-22T14:01:37.956Z,0.00
2022-08-22T14:04:34.604Z,0.00
2022-08-22T14:07:02.456Z,0.00
2022-08-22T14:09:41.327Z,0.00
2022-08-22T14:12:20.954Z,0.00
2022-08-22T14:15:00.226Z,0.00
2022-08-22T14:17:42.806Z,0.00
2022-08-22T14:20:32.359Z,0.00
2022-08-22T14:23:06.923Z,0.00
2022-08-22T14:25:40.018Z,0.00
2022-08-22T14:28:11.175Z,0.00
2022-08-22T14:30:59.406Z,0.00
2022-08-22T14:33:48.135Z,0.00
2022-08-22T14:36:29.069Z,0.00
2022-08-22T14:39:01.953Z,0.00
2022-08-22T14:41:56.519Z,0.50
2022-08-22T14:44:52.076Z,0.00
2022-08-22T14:48:30.542Z,0.00
2022-08-22T14:51:04.031Z,0.00
2022-08-22T14:53:34.105Z,0.00
2022-08-22T14:56:15.015Z,1.00
2022-08-22T14:58:58.215Z,0.00
2022-08-22T15:01:29.360Z,0.00
2022-08-22T15:04:04.527Z,0.75
2022-08-22T15:06:48.174Z,0.25
2022-08-22T15:09:36.446Z,1.00
2022-08-22T15:12:39.746Z,0.00
2022-08-22T15:15:12.908Z,0.00
2022-08-22T15:17:46.643Z,0.00
2022-08-22T15:20:49.234Z,0.75
2022-08-22T15:23:24.327Z,0.00
2022-08-22T15:26:05.803Z,0.00
2022-08-22T15:28:53.143Z,0.00
2022-08-22T15:31:22.240Z,1.00
2022-08-22T15:33:50.350Z,0.00
2022-08-22T15:36:20.203Z,0.00
2022-08-22T15:38:48.428Z,0.25
2022-08-22T15:41:36.952Z,0.00
2022-08-22T15:44:32.360Z,0.00
2022-08-22T15:47:28.498Z,0.00
2022-08-22T15:50:02.202Z,0.75
2022-08-22T15:52:35.660Z,1.00
2022-08-22T15:55:17.528Z,0.00
2022-08-22T15:58:02.585Z,0.00
2022-08-22T16:00:34.444Z,0.75
2022-08-22T16:03:23.337Z,0.00
2022-08-22T16:06:00.057Z,0.00
2022-08-22T16:09:04.999Z,0.00
2022-08-22T16:11:34.870Z,0.00
2022-08-22T16:14:24.152Z,0.00
2022-08-22T16:16:51.575Z,0.00
2022-08-22T16:19:23.575Z,1.00
2022-08-22T16:22:02.696Z,1.00
2022-08-22T16:24:53.864Z,0.00
2022-08-22T16:27:25.783Z,0.00
2022-08-22T16:30:03.667Z,0.00
2022-08-22T16:32:30.363Z,0.00
2022-08-22T16:34:57.048Z,0.00
2022-08-22T16:37:35.291Z,0.00
2022-08-22T16:40:02.040Z,0.00
2022-08-22T16:42:39.007Z,0.50
2022-08-22T16:45:24.282Z,0.00
2022-08-22T16:47:58.155Z,1.00
2022-08-22T16:50:33.485Z,0.00
2022-08-22T16:53:20.301Z,0.00
2022-08-22T16:56:10.155Z,0.00
2022-08-22T16:58:58.927Z,1.00
2022-08-22T17:01:37.876Z,1.00
2022-08-22T17:04:32.444Z,0.00
2022-08-22T17:07:12.828Z,0.00
2022-08-22T17:10:03.520Z,0.00
2022-08-22T17:12:54.384Z,0.00
2022-08-22T17:15:35.891Z,0.00
2022-08-22T17:18:24.004Z,0.00
2022-08-22T17:21:19.600Z,0.00
2022-08-22T17:23:57.627Z,0.00
2022-08-22T17:26:36.531Z,0.00
2022-08-22T17:29:24.996Z,0.00
2022-08-22T17:31:55.733Z,0.00
2022-08-22T17:34:55.880Z,0.00
2022-08-22T17:37:30.773Z,0.00
2022-08-22T17:40:15.779Z,0.00
2022-08-22T17:42:58.902Z,2.00
2022-08-22T17:45:52.510Z,0.00
2022-08-22T17:48:25.640Z,0.00
2022-08-22T17:51:12.806Z,0.00
2022-08-22T17:53:48.268Z,0.00
2022-08-22T17:57:05.317Z,1.00
2022-08-22T17:59:56.409Z,0.00
2022-08-22T18:02:53.336Z,0.00
2022-08-22T18:05:22.674Z,0.00
2022-08-22T18:08:04.306Z,0.00
2022-08-22T18:10:38.404Z,0.00
2022-08-22T18:13:36.354Z,0.00
2022-08-22T18:16:14.057Z,0.00
2022-08-22T18:18:49.950Z,0.00
2022-08-22T18:21:50.734Z,0.00
2022-08-22T18:24:45.083Z,1.00
2022-08-22T18:27:34.554Z,0.75
2022-08-22T18:30:08.738Z,1.00
2022-08-22T18:33:00.599Z,0.00
2022-08-22T18:35:39.567Z,0.00
2022-08-22T18:38:26.561Z,0.00
2022-08-22T18:41:03.594Z,0.25
2022-08-22T18:43:39.821Z,0.00
2022-08-22T18:46:38.508Z,0.00
2022-08-22T18:49:19.757Z,0.00
2022-08-22T18:52:08.343Z,0.50
2022-08-22T18:54:43.914Z,1.00
2022-08-22T18:57:47.519Z,0.00
2022-08-22T19:00:18.694Z,1.00
2022-08-22T19:02:57.795Z,1.00
2022-08-22T19:06:00.490Z,0.00
2022-08-22T19:08:35.908Z,0.50
2022-08-22T19:11:35.135Z,1.25
2022-08-22T19:14:20.001Z,1.00
2022-08-22T19:16:56.771Z,0.25
2022-08-22T19:20:08.811Z,0.75
2022-08-22T19:22:36.650Z,0.00
2022-08-22T19:25:15.354Z,0.00
2022-08-22T19:28:06.909Z,0.50
2022-08-22T19:30:39.414Z,0.75
2022-08-22T19:33:13.195Z,2.00
2022-08-22T19:35:42.850Z,1.00
2022-08-22T19:38:11.532Z,1.00
2022-08-22T19:40:55.497Z,1.00
2022-08-22T19:43:30.870Z,0.75
2022-08-22T19:45:59.906Z,1.00
2022-08-22T19:48:43.298Z,1.50
2022-08-22T19:51:26.633Z,1.00
2022-08-22T19:53:55.938Z,3.75
2022-08-22T19:56:50.612Z,1.75
2022-08-22T19:59:20.592Z,2.00
2022-08-22T20:01:58.102Z,1.00
2022-08-22T20:04:41.643Z,1.00
2022-08-22T20:07:30.172Z,1.25
2022-08-22T20:10:04.430Z,1.00
2022-08-22T20:12:59.973Z,0.25
2022-08-22T20:15:29.875Z,0.00
2022-08-22T20:18:47.175Z,0.00
2022-08-22T20:20:59.893Z,1.00
2022-08-22T20:23:30.749Z,0.00
2022-08-22T20:25:58.393Z,0.00
2022-08-22T20:28:30.930Z,0.00
2022-08-22T20:31:01.568Z,0.00
2022-08-22T20:33:38.936Z,1.00
2022-08-22T20:36:16.608Z,0.75
2022-08-22T20:39:01.758Z,0.00
2022-08-22T20:41:33.598Z,0.00
2022-08-22T20:44:27.207Z,0.25
2022-08-22T20:47:12.223Z,0.25
2022-08-22T20:49:50.170Z,0.00
2022-08-22T20:52:19.599Z,1.00
2022-08-22T20:55:08.910Z,1.00
2022-08-22T20:57:45.624Z,0.50
2022-08-22T21:00:16.472Z,0.50
2022-08-22T21:03:05.378Z,1.00
2022-08-22T21:05:40.645Z,0.00
2022-08-22T21:08:19.382Z,1.00
2022-08-22T21:11:19.461Z,0.00
2022-08-22T21:13:46.567Z,0.75
2022-08-22T21:16:22.102Z,1.00
2022-08-22T21:18:53.945Z,1.00
2022-08-22T21:21:26.081Z,0.50
2022-08-22T21:24:00.361Z,0.50
2022-08-22T21:26:59.724Z,1.00
2022-08-22T21:29:33.852Z,1.00
2022-08-22T21:32:15.535Z,0.25
2022-08-22T21:34:48.766Z,1.00
2022-08-22T21:37:29.508Z,1.00
2022-08-22T21:40:08.467Z,1.00
2022-08-22T21:42:44.151Z,1.00
2022-08-22T21:45:28.625Z,1.00
2022-08-22T21:47:55.553Z,1.00
2022-08-22T21:50:24.744Z,1.00
2022-08-22T21:52:54.213Z,1.75
2022-08-22T21:55:35.680Z,0.50
2022-08-22T21:58:07.879Z,1.50
2022-08-22T22:00:51.654Z,1.00
2022-08-22T22:03:27.014Z,0.75
2022-08-22T22:05:58.594Z,0.00
2022-08-22T22:08:29.257Z,1.50
2022-08-22T22:11:03.342Z,1.00
2022-08-22T22:13:32.851Z,1.25
2022-08-22T22:15:59.970Z,1.00
2022-08-22T22:18:30.794Z,1.00
2022-08-22T22:20:57.804Z,0.75
2022-08-22T22:23:25.449Z,1.00
2022-08-22T22:25:54.678Z,1.00
2022-08-22T22:28:21.852Z,1.00
2022-08-22T22:30:51.461Z,1.00
2022-08-22T22:33:23.459Z,1.75
2022-08-22T22:35:51.736Z,1.00
2022-08-22T22:38:23.373Z,1.50
2022-08-22T22:40:51.422Z,1.00
2022-08-22T22:43:18.149Z,0.00
2022-08-22T22:45:44.979Z,1.00
2022-08-22T22:48:11.603Z,1.00
2022-08-22T22:50:44.416Z,1.25
2022-08-22T22:53:12.027Z,1.00
2022-08-22T22:56:00.145Z,1.00
2022-08-22T22:58:28.210Z,1.50
2022-08-22T23:00:55.323Z,1.00
2022-08-22T23:03:22.447Z,1.00
2022-08-22T23:05:49.100Z,1.00
2022-08-22T23:08:15.784Z,1.25
2022-08-22T23:10:42.448Z,1.75
2022-08-22T23:13:09.383Z,1.75
2022-08-22T23:15:37.196Z,1.50
2022-08-22T23:18:03.919Z,1.00
2022-08-22T23:20:30.614Z,1.00
2022-08-22T23:22:57.306Z,1.00
2022-08-22T23:25:23.967Z,2.00
2022-08-22T23:27:52.399Z,1.25
2022-08-22T23:30:25.219Z,2.00
2022-08-22T23:32:51.882Z,2.00
2022-08-22T23:35:18.564Z,1.75
2022-08-22T23:37:45.371Z,1.00
2022-08-22T23:40:12.978Z,2.00
2022-08-22T23:42:39.805Z,1.75
2022-08-22T23:45:06.897Z,1.00
2022-08-22T23:47:33.550Z,1.50
2022-08-22T23:50:05.815Z,1.25
2022-08-22T23:52:33.340Z,2.00
2022-08-22T23:54:59.987Z,1.00
2022-08-22T23:57:27.681Z,1.75
2022-08-22T23:59:57.316Z,2.00
